Time;durP1;ratioP1;P1;durP2;ratioP2;P2;SDS_P1;SDS_P2;PMS_P1;PMS_P2;Temp;Humidity;BMP_temperature;BMP_pressure;BME280_temperature;BME280_humidity;BME280_pressure;Samples;Min_cycle;Max_cycle;Signal;HPM_P1;HPM_P2
2022/08/23 00:01:29;;;;;;;13.03;4.12;;;;;;;22.19;54.72;100329.41;1765623;80;21232;-64
2022/08/23 00:03:59;;;;;;;11.78;4.35;;;;;;;22.17;54.95;100330.09;1771506;80;21098;-64
2022/08/23 00:06:26;;;;;;;14.50;4.25;;;;;;;22.13;54.66;100322.16;1772511;79;21057;-63
2022/08/23 00:08:54;;;;;;;18.20;4.85;;;;;;;22.12;55.11;100319.67;1775867;79;21051;-63
2022/08/23 00:11:34;;;;;;;10.35;4.22;;;;;;;22.08;54.83;100317.39;1772352;79;21414;-64
2022/08/23 00:14:08;;;;;;;8.63;4.25;;;;;;;22.07;54.68;100322.95;1765768;80;21244;-64
2022/08/23 00:16:35;;;;;;;12.13;4.20;;;;;;;22.04;55.33;100320.66;1766989;79;21062;-63
2022/08/23 00:19:04;;;;;;;14.93;4.03;;;;;;;22.01;55.52;100323.25;1768730;80;21013;-64
2022/08/23 00:21:31;;;;;;;11.00;4.20;;;;;;;21.98;55.56;100322.82;1765955;79;21076;-63
2022/08/23 00:23:57;;;;;;;11.50;3.87;;;;;;;21.93;55.41;100318.58;1766639;78;21074;-64
2022/08/23 00:26:24;;;;;;;18.10;4.45;;;;;;;21.91;55.64;100324.65;1772448;79;21198;-64
2022/08/23 00:28:51;;;;;;;10.43;4.03;;;;;;;21.86;55.68;100319.36;1766045;80;21063;-64
2022/08/23 00:31:18;;;;;;;13.40;4.10;;;;;;;21.86;55.67;100330.59;1741719;80;21060;-64
2022/08/23 00:33:45;;;;;;;13.22;3.75;;;;;;;21.83;55.79;100325.11;1744378;82;20999;-64
2022/08/23 00:36:11;;;;;;;11.75;3.83;;;;;;;21.84;55.80;100325.95;1744493;80;21528;-64
2022/08/23 00:38:38;;;;;;;9.33;3.75;;;;;;;21.83;55.29;100321.61;1746131;80;21266;-63
2022/08/23 00:41:05;;;;;;;16.32;4.53;;;;;;;21.82;55.45;100326.64;1708298;82;21054;-64
2022/08/23 00:49:09;;;;;;;12.53;4.20;;;;;;;21.88;55.20;100333.38;1789877;77;20988;-65
2022/08/23 00:51:56;;;;;;;14.63;4.58;;;;;;;21.86;55.60;100342.13;1710854;82;21245;-65
2022/08/23 00:54:26;;;;;;;12.58;3.90;;;;;;;21.84;55.37;100340.69;1722710;81;21072;-63
2022/08/23 00:56:55;;;;;;;9.35;4.15;;;;;;;21.83;54.81;100344.38;1758874;79;20998;-62
2022/08/23 00:59:22;;;;;;;12.30;3.75;;;;;;;21.81;54.81;100345.91;1767993;80;21056;-63
2022/08/23 01:01:49;;;;;;;9.23;3.65;;;;;;;21.80;55.24;100350.13;1777036;79;21050;-63
2022/08/23 01:04:16;;;;;;;10.15;3.62;;;;;;;21.77;55.61;100342.48;1760335;79;21227;-63
2022/08/23 01:07:03;;;;;;;12.98;3.75;;;;;;;21.74;55.63;100341.53;1752830;81;20998;-63
2022/08/23 01:09:31;;;;;;;9.18;3.75;;;;;;;21.71;54.71;100343.58;1753575;79;21041;-64
2022/08/23 01:12:03;;;;;;;11.28;3.75;;;;;;;21.71;54.77;100340.09;1767712;80;21109;-64
2022/08/23 01:14:53;;;;;;;9.98;3.92;;;;;;;21.70;54.98;100341.95;1743706;80;21085;-64
2022/08/23 01:17:25;;;;;;;8.95;3.40;;;;;;;21.68;54.79;100340.48;1731258;81;21139;-64
2022/08/23 01:19:58;;;;;;;15.88;3.98;;;;;;;21.64;55.26;100340.56;1777073;79;21058;-65
2022/08/23 01:22:49;;;;;;;15.68;3.70;;;;;;;21.62;55.09;100350.62;1721971;81;21052;-64
2022/08/23 01:25:20;;;;;;;10.90;3.72;;;;;;;21.59;54.84;100349.19;1752865;81;21508;-65
2022/08/23 01:27:47;;;;;;;10.28;3.75;;;;;;;21.59;54.70;100345.69;1745511;80;21118;-65
2022/08/23 01:30:19;;;;;;;11.38;3.58;;;;;;;21.58;54.49;100342.16;1752829;81;21103;-65
2022/08/23 01:32:52;;;;;;;16.20;4.83;;;;;;;21.58;54.79;100343.50;1754794;80;21078;-65
2022/08/23 01:35:20;;;;;;;18.48;4.35;;;;;;;21.58;54.85;100347.52;1756869;80;21066;-66
2022/08/23 01:37:47;;;;;;;12.58;4.12;;;;;;;21.57;54.49;100346.38;1770930;80;21572;-64
2022/08/23 01:40:14;;;;;;;14.33;4.20;;;;;;;21.57;53.90;100346.38;1745054;80;21102;-65
2022/08/23 01:42:41;;;;;;;10.40;4.65;;;;;;;21.57;54.05;100351.72;1735927;81;21231;-65
2022/08/23 01:45:11;;;;;;;15.75;4.97;;;;;;;21.56;54.42;100352.25;1752935;80;21114;-66
2022/08/23 01:47:38;;;;;;;9.08;4.20;;;;;;;21.58;54.30;100355.55;1737576;81;21024;-65
2022/08/23 01:50:06;;;;;;;12.93;4.33;;;;;;;21.58;54.66;100352.05;1749278;81;21014;-64
2022/08/23 01:52:35;;;;;;;18.30;4.65;;;;;;;21.55;55.02;100354.59;1752215;81;21056;-64
2022/08/23 01:55:02;;;;;;;14.23;5.12;;;;;;;21.56;57.33;100360.80;1725513;81;21172;-63
2022/08/23 01:57:29;;;;;;;13.88;4.10;;;;;;;21.59;57.43;100362.56;1774614;78;21114;-65
2022/08/23 01:59:56;;;;;;;10.85;3.87;;;;;;;21.67;57.33;100363.76;1789885;78;21060;-64
2022/08/23 02:02:24;;;;;;;9.53;4.40;;;;;;;21.71;56.33;100365.01;1773685;79;21646;-64
2022/08/23 02:04:51;;;;;;;12.30;4.50;;;;;;;21.77;55.22;100363.41;1775802;79;21056;-65
2022/08/23 02:07:19;;;;;;;14.83;4.12;;;;;;;21.80;54.75;100361.66;1774332;79;21149;-64
2022/08/23 02:09:48;;;;;;;11.53;3.60;;;;;;;21.84;53.71;100363.45;1777523;79;21132;-64
2022/08/23 02:12:15;;;;;;;9.55;3.60;;;;;;;21.87;53.20;100367.05;1773578;79;21126;-64
2022/08/23 02:14:42;;;;;;;15.68;3.62;;;;;;;21.85;52.92;100361.89;1786724;78;21096;-64
2022/08/23 02:17:10;;;;;;;14.28;4.58;;;;;;;21.87;52.41;100367.05;1781083;79;21462;-64
2022/08/23 02:19:38;;;;;;;14.95;4.12;;;;;;;21.85;52.80;100369.11;1791206;79;21215;-64
2022/08/23 02:22:06;;;;;;;16.35;4.05;;;;;;;21.81;52.66;100362.50;1798891;79;21048;-64
2022/08/23 02:24:34;;;;;;;12.80;3.87;;;;;;;21.76;53.11;100368.96;1798064;79;21099;-64
2022/08/23 02:27:03;;;;;;;11.15;4.22;;;;;;;21.70;53.03;100371.41;1785926;79;21044;-65
2022/08/23 02:29:33;;;;;;;12.23;4.37;;;;;;;21.67;53.65;100365.09;1785506;78;21365;-64
2022/08/23 02:32:02;;;;;;;11.93;3.52;;;;;;;21.61;53.17;100364.53;1793582;79;21892;-65
2022/08/23 02:34:30;;;;;;;12.63;3.98;;;;;;;21.59;52.61;100363.09;1792227;79;21028;-64
2022/08/23 02:36:57;;;;;;;10.58;3.75;;;;;;;21.56;52.73;100360.28;1771387;79;21130;-64
2022/08/23 02:39:24;;;;;;;11.60;4.03;;;;;;;21.52;52.37;100367.88;1788798;78;21100;-64
2022/08/23 02:41:52;;;;;;;12.28;3.77;;;;;;;21.50;52.77;100370.42;1789181;78;21023;-65
2022/08/23 02:44:20;;;;;;;20.23;3.58;;;;;;;21.46;52.53;100374.48;1728276;81;21234;-64
2022/08/23 02:46:47;;;;;;;11.63;3.72;;;;;;;21.43;52.47;100371.67;1791931;78;21083;-65
2022/08/23 02:49:14;;;;;;;10.85;3.85;;;;;;;21.42;52.02;100374.58;1731551;81;21118;-65
2022/08/23 02:51:41;;;;;;;11.70;4.05;;;;;;;21.40;52.08;100367.23;1807483;78;20988;-65
2022/08/23 02:54:08;;;;;;;13.28;3.80;;;;;;;21.40;52.47;100379.27;1813910;78;21514;-64
2022/08/23 02:56:35;;;;;;;13.98;3.77;;;;;;;21.38;52.21;100378.64;1802831;79;21123;-65
2022/08/23 02:59:03;;;;;;;11.55;4.08;;;;;;;21.36;51.95;100374.00;1790278;79;21012;-64
2022/08/23 03:01:34;;;;;;;14.60;4.30;;;;;;;21.35;51.98;100382.55;1787639;78;21000;-65
2022/08/23 03:04:06;;;;;;;12.28;3.58;;;;;;;21.35;52.46;100383.89;1789116;78;21068;-65
2022/08/23 03:06:33;;;;;;;12.63;3.80;;;;;;;21.32;52.50;100389.63;1797297;79;21002;-65
2022/08/23 03:09:00;;;;;;;14.60;4.50;;;;;;;21.31;52.54;100393.31;1788483;78;21123;-64
2022/08/23 03:11:27;;;;;;;12.23;3.85;;;;;;;21.30;52.90;100387.14;1792713;78;21047;-65
2022/08/23 03:13:57;;;;;;;12.05;4.17;;;;;;;21.30;53.10;100392.98;1785932;78;21033;-65
2022/08/23 03:16:24;;;;;;;9.50;3.92;;;;;;;21.30;52.34;100395.66;1800651;78;21055;-65
2022/08/23 03:18:51;;;;;;;9.60;3.80;;;;;;;21.32;52.35;100398.98;1796844;78;21143;-65
2022/08/23 03:21:18;;;;;;;14.98;4.45;;;;;;;21.34;52.29;100404.97;1790895;78;21115;-65
2022/08/23 03:23:47;;;;;;;12.37;3.40;;;;;;;21.34;52.49;100402.30;1796070;78;21096;-65
2022/08/23 03:26:14;;;;;;;10.50;4.45;;;;;;;21.33;52.82;100409.50;1808260;78;21051;-65
2022/08/23 03:28:42;;;;;;;10.75;3.70;;;;;;;21.34;52.73;100408.98;1792157;78;21382;-64
2022/08/23 03:31:09;;;;;;;7.78;3.10;;;;;;;21.32;52.69;100405.68;1793851;78;21080;-65
2022/08/23 03:33:39;;;;;;;11.68;3.70;;;;;;;21.32;52.33;100407.84;1791551;79;21145;-66
2022/08/23 03:36:07;;;;;;;11.43;3.50;;;;;;;21.34;52.66;100401.77;1778768;78;21045;-65
2022/08/23 03:38:34;;;;;;;7.47;3.35;;;;;;;21.39;52.79;100408.41;1793923;79;22348;-66
2022/08/23 03:41:03;;;;;;;12.23;3.87;;;;;;;21.40;52.75;100418.08;1786905;78;21049;-66
2022/08/23 03:43:29;;;;;;;12.53;3.65;;;;;;;21.40;52.58;100414.06;1785705;78;21103;-66
2022/08/23 03:45:56;;;;;;;8.98;3.58;;;;;;;21.42;52.34;100424.09;1781109;79;21123;-66
2022/08/23 03:48:23;;;;;;;14.55;4.30;;;;;;;21.43;52.37;100425.21;1785006;77;21287;-66
2022/08/23 03:50:51;;;;;;;10.30;3.77;;;;;;;21.47;52.71;100427.87;1810355;79;21028;-66
2022/08/23 03:53:18;;;;;;;7.42;3.47;;;;;;;21.49;52.69;100433.03;1810760;77;21554;-65
2022/08/23 03:55:44;;;;;;;7.85;3.90;;;;;;;21.51;53.01;100435.00;1794165;77;22283;-65
2022/08/23 03:58:13;;;;;;;18.98;4.65;;;;;;;21.52;53.37;100430.79;1781251;80;22204;-66
2022/08/23 04:00:39;;;;;;;13.40;4.10;;;;;;;21.53;53.25;100438.30;1787894;77;21565;-65
2022/08/23 04:03:06;;;;;;;11.00;4.15;;;;;;;21.55;52.93;100441.60;1783655;79;21484;-65
2022/08/23 04:05:35;;;;;;;11.00;3.77;;;;;;;21.58;52.64;100438.55;1791731;77;21072;-66
2022/08/23 04:08:09;;;;;;;14.33;4.03;;;;;;;21.63;52.55;100433.44;1784304;79;21445;-64
2022/08/23 04:10:38;;;;;;;10.90;4.28;;;;;;;21.69;52.22;100444.72;1795424;79;21202;-65
2022/08/23 04:13:07;;;;;;;10.08;4.33;;;;;;;21.75;52.09;100443.09;1785853;79;21056;-66
2022/08/23 04:15:34;;;;;;;12.68;3.80;;;;;;;21.80;52.04;100446.02;1786296;79;21091;-65
2022/08/23 04:18:01;;;;;;;11.57;4.42;;;;;;;21.85;52.14;100452.95;1809002;79;21031;-65
2022/08/23 04:20:28;;;;;;;13.58;3.90;;;;;;;21.92;52.71;100452.19;1806250;77;21000;-64
2022/08/23 04:22:56;;;;;;;17.23;4.53;;;;;;;21.97;52.72;100461.80;1804368;79;21145;-64
2022/08/23 04:25:25;;;;;;;8.25;3.58;;;;;;;22.01;53.07;100463.90;1802661;77;21013;-65
2022/08/23 04:27:52;;;;;;;11.10;3.77;;;;;;;22.04;52.57;100454.13;1810191;77;20997;-65
2022/08/23 04:30:19;;;;;;;10.65;3.83;;;;;;;22.11;52.27;100456.86;1740087;82;21054;-64
2022/08/23 04:32:47;;;;;;;9.25;3.45;;;;;;;22.18;52.28;100462.26;1805843;79;21025;-64
2022/08/23 04:35:14;;;;;;;11.63;4.08;;;;;;;22.22;51.70;100458.14;1809573;77;21452;-64
2022/08/23 04:37:40;;;;;;;9.10;3.17;;;;;;;22.28;51.99;100456.55;1781564;79;21118;-64
2022/08/23 04:42:56;;;;;;;19.42;4.25;;;;;;;22.38;51.40;100465.08;1809225;79;21125;-65
2022/08/23 04:45:25;;;;;;;12.88;4.17;;;;;;;22.42;50.84;100465.80;1810686;79;21106;-64
2022/08/23 04:47:52;;;;;;;15.93;4.62;;;;;;;22.45;50.67;100468.61;1805826;78;21143;-64
2022/08/23 04:50:19;;;;;;;11.38;4.22;;;;;;;22.50;50.41;100463.48;1794855;79;21056;-64
2022/08/23 04:53:06;;;;;;;10.40;3.70;;;;;;;22.54;50.87;100468.74;1775489;79;21392;-64
2022/08/23 04:55:35;;;;;;;17.57;4.67;;;;;;;22.58;51.03;100471.88;1796594;78;21025;-64
2022/08/23 04:58:06;;;;;;;14.35;4.65;;;;;;;22.59;51.48;100470.83;1804171;78;21080;-65
2022/08/23 05:00:34;;;;;;;10.90;4.12;;;;;;;22.62;50.94;100473.12;1791016;79;21654;-64
2022/08/23 05:03:01;;;;;;;15.38;3.75;;;;;;;22.65;50.24;100480.77;1787911;78;21765;-64
2022/08/23 05:05:28;;;;;;;23.60;4.80;;;;;;;22.68;49.79;100479.53;1783328;78;21474;-65
2022/08/23 05:07:56;;;;;;;10.98;4.15;;;;;;;22.70;50.18;100486.89;1771106;79;21594;-65
2022/08/23 05:10:24;;;;;;;17.50;4.90;;;;;;;22.74;50.39;100486.78;1776710;79;21029;-64
2022/08/23 05:12:52;;;;;;;16.17;4.10;;;;;;;22.76;50.31;100492.27;1791767;78;21718;-64
2022/08/23 05:15:20;;;;;;;17.55;5.55;;;;;;;22.78;50.04;100487.53;1794036;78;21016;-64
2022/08/23 05:17:50;;;;;;;16.17;4.45;;;;;;;22.81;49.34;100489.81;1796775;78;21094;-64
2022/08/23 05:20:17;;;;;;;14.90;4.30;;;;;;;22.85;48.89;100490.73;1751428;79;21102;-64
2022/08/23 05:22:44;;;;;;;23.30;5.83;;;;;;;22.88;49.23;100487.16;1792559;78;21575;-64
2022/08/23 05:25:16;;;;;;;21.05;5.00;;;;;;;22.90;48.75;100485.62;1794315;78;21801;-64
2022/08/23 05:27:43;;;;;;;16.60;4.50;;;;;;;22.92;48.66;100489.73;1714583;81;21095;-64
2022/08/23 05:30:11;;;;;;;18.60;4.65;;;;;;;22.94;48.31;100494.37;1801095;79;21065;-63
2022/08/23 05:32:39;;;;;;;13.15;5.25;;;;;;;22.97;48.44;100497.19;1725840;81;21039;-63
2022/08/23 05:35:08;;;;;;;15.03;5.35;;;;;;;22.98;48.64;100493.46;1787383;79;21053;-63
2022/08/23 05:37:35;;;;;;;14.98;5.08;;;;;;;23.00;48.87;100494.11;1778668;79;21099;-64
2022/08/23 05:40:03;;;;;;;15.30;4.62;;;;;;;23.02;48.81;100495.25;1783339;78;21074;-64
2022/08/23 05:42:32;;;;;;;21.70;5.42;;;;;;;23.03;48.81;100497.70;1796261;78;21099;-63
2022/08/23 05:44:59;;;;;;;15.58;5.17;;;;;;;23.05;49.32;100502.38;1789546;78;20992;-64
2022/08/23 05:47:26;;;;;;;22.30;5.95;;;;;;;23.09;49.63;100504.17;1794027;78;21051;-64
2022/08/23 05:49:55;;;;;;;16.12;4.83;;;;;;;23.10;49.90;100507.15;1792919;79;22017;-64
2022/08/23 05:52:22;;;;;;;27.40;5.58;;;;;;;23.12;50.29;100504.59;1793304;79;21491;-64
2022/08/23 05:54:49;;;;;;;20.82;5.87;;;;;;;23.17;50.03;100509.36;1803524;79;21011;-64
2022/08/23 05:57:26;;;;;;;19.40;5.65;;;;;;;23.24;50.29;100517.42;1760392;79;21051;-64
2022/08/23 05:59:53;;;;;;;26.93;6.20;;;;;;;23.33;50.52;100517.53;1791741;78;21045;-62
2022/08/23 06:02:20;;;;;;;24.95;5.40;;;;;;;23.40;50.05;100519.70;1737404;81;21149;-64
2022/08/23 06:04:47;;;;;;;38.17;6.53;;;;;;;23.50;49.63;100521.50;1800530;79;22259;-64
2022/08/23 06:07:15;;;;;;;25.80;6.10;;;;;;;23.62;49.02;100520.88;1788586;78;21455;-63
2022/08/23 06:09:42;;;;;;;28.67;6.58;;;;;;;23.70;48.55;100517.50;1798563;79;21037;-63
2022/08/23 06:12:09;;;;;;;21.70;6.70;;;;;;;23.80;48.80;100521.61;1793940;78;21090;-64
2022/08/23 06:14:40;;;;;;;26.45;7.10;;;;;;;23.85;48.27;100521.33;1788118;78;21269;-63
2022/08/23 06:17:07;;;;;;;24.05;6.10;;;;;;;23.93;48.10;100525.15;1783416;79;21039;-63
2022/08/23 06:19:34;;;;;;;30.80;7.00;;;;;;;24.02;47.99;100525.76;1805256;78;21009;-63
2022/08/23 06:22:05;;;;;;;28.95;6.47;;;;;;;24.14;47.85;100534.55;1792757;79;21043;-62
2022/08/23 06:24:34;;;;;;;29.60;7.40;;;;;;;24.23;47.60;100540.84;1798653;78;21049;-65
2022/08/23 06:27:02;;;;;;;33.18;6.83;;;;;;;24.35;46.83;100535.65;1788182;79;21233;-62
2022/08/23 06:29:29;;;;;;;28.83;7.05;;;;;;;24.45;46.81;100544.63;1800279;79;21096;-63
2022/08/23 06:31:57;;;;;;;30.45;7.92;;;;;;;24.55;46.43;100542.89;1715374;79;21051;-64
2022/08/23 06:34:31;;;;;;;35.92;7.37;;;;;;;24.63;46.49;100545.35;1799393;79;20980;-63
2022/08/23 06:37:04;;;;;;;30.45;7.58;;;;;;;24.70;45.92;100548.84;1792333;78;21087;-64
2022/08/23 06:39:50;;;;;;;28.12;7.55;;;;;;;24.79;46.07;100554.28;1801816;79;21122;-64
2022/08/23 06:42:27;;;;;;;28.07;6.92;;;;;;;24.88;45.71;100559.42;1749218;79;21067;-63
2022/08/23 06:44:56;;;;;;;28.75;7.25;;;;;;;24.96;44.86;100564.04;1782423;78;21054;-64
2022/08/23 06:47:27;;;;;;;34.15;7.67;;;;;;;25.00;44.90;100563.94;1792376;79;21004;-62
2022/08/23 06:49:54;;;;;;;36.53;6.60;;;;;;;25.06;44.53;100564.12;1799933;79;21088;-63
2022/08/23 06:52:22;;;;;;;52.65;9.70;;;;;;;25.12;43.85;100559.23;1799168;79;21137;-63
2022/08/23 06:55:01;;;;;;;63.68;9.88;;;;;;;25.16;43.94;100569.34;1782065;79;21032;-64
2022/08/23 06:57:32;;;;;;;43.10;9.53;;;;;;;25.22;43.58;100565.80;1769812;78;21041;-62
2022/08/23 07:00:18;;;;;;;47.30;9.00;;;;;;;25.28;44.05;100561.97;1779459;79;21118;-63
2022/08/23 07:02:58;;;;;;;48.10;11.40;;;;;;;25.32;43.46;100572.09;1791002;78;21013;-64
2022/08/23 07:05:26;;;;;;;38.10;9.85;;;;;;;25.38;43.43;100571.75;1728692;81;21141;-64
2022/08/23 07:07:55;;;;;;;47.33;9.15;;;;;;;25.43;43.64;100575.96;1754048;79;21033;-63
2022/08/23 07:10:22;;;;;;;33.70;6.60;;;;;;;25.48;43.79;100577.48;1795840;78;21074;-64
2022/08/23 07:12:49;;;;;;;35.85;8.28;;;;;;;25.49;43.03;100579.67;1794902;78;21049;-64
2022/08/23 07:15:18;;;;;;;39.88;7.90;;;;;;;25.49;43.27;100587.23;1790293;78;21105;-64
2022/08/23 07:17:46;;;;;;;41.58;9.68;;;;;;;25.48;43.84;100588.26;1793674;78;21862;-64
2022/08/23 07:20:13;;;;;;;41.60;9.60;;;;;;;25.50;43.76;100588.89;1790953;78;21705;-63
2022/08/23 07:22:43;;;;;;;42.88;10.50;;;;;;;25.58;44.36;100583.22;1791135;78;21096;-62
2022/08/23 07:25:10;;;;;;;43.42;9.58;;;;;;;25.67;44.10;100584.31;1787576;79;21505;-64
2022/08/23 07:27:38;;;;;;;44.63;10.30;;;;;;;25.77;44.07;100588.19;1801514;79;20974;-64
2022/08/23 07:30:08;;;;;;;40.43;8.70;;;;;;;25.86;43.64;100591.97;1789697;78;21131;-64
2022/08/23 07:32:36;;;;;;;43.05;10.45;;;;;;;25.95;43.76;100589.32;1794887;78;21088;-63
2022/08/23 07:35:11;;;;;;;48.30;8.70;;;;;;;26.06;43.35;100592.66;1791138;79;21596;-64
2022/08/23 07:37:41;;;;;;;35.05;8.35;;;;;;;26.17;43.03;100592.98;1797999;79;21006;-65
2022/08/23 07:40:10;;;;;;;41.25;8.70;;;;;;;26.24;42.13;100593.74;1792714;78;21611;-65
2022/08/23 07:42:37;;;;;;;36.55;8.08;;;;;;;26.33;42.10;100601.34;1735258;81;21129;-65
2022/08/23 07:45:05;;;;;;;38.80;8.50;;;;;;;26.39;42.27;100598.80;1749550;81;21036;-64
2022/08/23 07:47:33;;;;;;;39.70;9.65;;;;;;;26.43;42.08;100599.48;1796793;79;21111;-66
2022/08/23 07:50:00;;;;;;;44.55;9.70;;;;;;;26.49;42.37;100591.86;1793998;78;21123;-64
2022/08/23 07:52:27;;;;;;;33.48;8.03;;;;;;;26.59;42.14;100593.20;1795543;79;21033;-64
2022/08/23 07:54:54;;;;;;;25.62;7.30;;;;;;;26.66;42.59;100598.88;1794747;79;21130;-64
2022/08/23 07:57:39;;;;;;;40.83;10.63;;;;;;;26.74;42.15;100593.69;1797841;78;21104;-65
2022/08/23 08:00:09;;;;;;;52.55;10.10;;;;;;;26.83;42.46;100595.05;1725018;79;21060;-65
2022/08/23 08:02:49;;;;;;;49.90;10.53;;;;;;;26.92;42.59;100594.75;1782508;78;21076;-64
2022/08/23 08:05:18;;;;;;;35.30;8.58;;;;;;;26.97;42.01;100598.94;1801240;79;21531;-64
2022/08/23 08:07:45;;;;;;;33.63;8.10;;;;;;;27.02;42.17;100596.39;1795699;78;21828;-64
2022/08/23 08:10:12;;;;;;;41.77;8.25;;;;;;;27.08;42.00;100595.45;1790263;79;21443;-64
2022/08/23 08:12:39;;;;;;;33.08;7.87;;;;;;;27.13;41.22;100598.30;1793519;78;21045;-65
2022/08/23 08:15:09;;;;;;;41.88;8.93;;;;;;;27.18;41.12;100595.73;1756811;80;21548;-64
2022/08/23 08:17:37;;;;;;;39.30;10.00;;;;;;;27.22;41.03;100599.66;1791052;78;21090;-64
2022/08/23 08:20:08;;;;;;;32.55;9.40;;;;;;;27.27;41.01;100600.33;1784563;79;21410;-65
2022/08/23 08:22:37;;;;;;;29.65;7.83;;;;;;;27.33;41.30;100610.23;1793377;78;21075;-65
2022/08/23 08:25:23;;;;;;;33.10;7.97;;;;;;;27.41;41.34;100605.05;1700055;82;21007;-65
2022/08/23 08:27:50;;;;;;;34.27;8.95;;;;;;;27.43;40.86;100605.63;1689129;83;21231;-64
2022/08/23 08:30:17;;;;;;;34.63;8.73;;;;;;;27.42;40.12;100607.52;1725652;79;21073;-64
2022/08/23 08:32:44;;;;;;;37.13;8.13;;;;;;;27.37;39.84;100614.14;1799668;79;21185;-64
2022/08/23 08:35:10;;;;;;;55.52;9.45;;;;;;;27.30;39.93;100617.97;1798837;78;21029;-64
2022/08/23 08:37:38;;;;;;;51.95;11.12;;;;;;;27.27;40.40;100616.53;1799192;78;21634;-64
2022/08/23 08:40:07;;;;;;;40.33;8.53;;;;;;;27.29;40.18;100617.69;1784445;79;21297;-64
2022/08/23 08:43:07;;;;;;;37.67;8.40;;;;;;;27.30;39.98;100614.73;1787373;78;21025;-65
2022/08/23 08:45:42;;;;;;;34.60;7.92;;;;;;;27.38;39.82;100622.52;1806655;78;21779;-65
2022/08/23 08:48:09;;;;;;;34.45;7.40;;;;;;;27.43;39.81;100622.66;1789469;79;21086;-65
2022/08/23 08:50:56;;;;;;;39.35;8.10;;;;;;;27.45;40.11;100624.32;1804516;78;21024;-64
2022/08/23 08:53:31;;;;;;;37.58;8.88;;;;;;;27.46;40.33;100621.39;1790541;79;21044;-65
2022/08/23 08:56:29;;;;;;;40.58;8.40;;;;;;;27.52;40.07;100620.48;1775650;78;21119;-66
2022/08/23 08:59:10;;;;;;;42.08;9.93;;;;;;;27.64;40.52;100626.44;1792086;79;21260;-65
2022/08/23 09:01:37;;;;;;;37.45;10.10;;;;;;;27.74;39.77;100626.20;1742639;79;21735;-66
2022/08/23 09:04:05;;;;;;;31.73;6.67;;;;;;;27.82;39.66;100624.20;1794264;79;22373;-65
2022/08/23 09:07:01;;;;;;;32.38;7.30;;;;;;;27.86;39.42;100621.35;1795622;79;21077;-64
2022/08/23 09:09:58;;;;;;;33.65;7.60;;;;;;;27.91;39.79;100622.30;1757331;81;21045;-65
2022/08/23 09:12:44;;;;;;;50.70;10.55;;;;;;;27.97;39.75;100615.16;1795210;79;21129;-65
2022/08/23 09:15:39;;;;;;;29.92;8.53;;;;;;;28.04;39.83;100621.81;1788428;78;21551;-65
2022/08/23 09:18:13;;;;;;;33.37;7.97;;;;;;;28.08;39.82;100626.52;1758704;81;21603;-65
2022/08/23 09:20:42;;;;;;;33.23;7.30;;;;;;;28.08;38.74;100622.47;1733944;81;21500;-64
2022/08/23 09:23:13;;;;;;;23.10;6.97;;;;;;;28.04;38.91;100631.27;1795859;78;21091;-64
2022/08/23 09:25:40;;;;;;;30.68;7.25;;;;;;;28.01;39.09;100632.58;1791080;78;21568;-65
2022/08/23 09:28:09;;;;;;;24.70;7.85;;;;;;;28.03;39.79;100629.64;1799311;78;21066;-64
2022/08/23 09:30:55;;;;;;;18.85;6.10;;;;;;;28.09;40.01;100626.83;1802384;79;21028;-65
2022/08/23 09:33:39;;;;;;;21.80;6.37;;;;;;;28.15;39.74;100625.06;1722500;81;21020;-64
2022/08/23 09:36:21;;;;;;;30.25;6.03;;;;;;;28.17;38.97;100621.59;1788922;77;21043;-65
2022/08/23 09:39:09;;;;;;;26.48;6.50;;;;;;;28.10;38.45;100623.59;1791713;78;21137;-64
2022/08/23 09:41:42;;;;;;;23.75;5.95;;;;;;;28.01;38.56;100615.00;1786759;78;21107;-64
2022/08/23 09:44:12;;;;;;;18.60;6.95;;;;;;;27.96;38.66;100626.50;1766156;80;21109;-64
2022/08/23 09:46:43;;;;;;;27.50;5.92;;;;;;;27.92;38.38;100626.66;1788900;79;21053;-64
2022/08/23 09:49:28;;;;;;;22.90;4.85;;;;;;;27.88;39.16;100624.10;1795096;78;21232;-63
2022/08/23 09:52:08;;;;;;;28.30;5.90;;;;;;;27.90;39.42;100623.87;1720924;81;21150;-64
2022/08/23 09:54:35;;;;;;;18.65;5.78;;;;;;;27.90;39.25;100619.81;1780288;78;21034;-64
2022/08/23 09:57:05;;;;;;;26.48;6.30;;;;;;;27.94;39.46;100616.45;1790863;79;21051;-64
2022/08/23 09:59:46;;;;;;;22.95;5.92;;;;;;;28.00;39.69;100616.58;1799238;78;21107;-64
2022/08/23 10:02:29;;;;;;;20.68;5.65;;;;;;;28.01;40.44;100617.70;1788178;78;21114;-64
2022/08/23 10:05:18;;;;;;;22.52;5.35;;;;;;;28.03;40.14;100620.99;1782357;79;21547;-63
2022/08/23 10:07:59;;;;;;;18.85;5.30;;;;;;;28.04;39.98;100619.10;1801780;79;21047;-64
2022/08/23 10:10:45;;;;;;;14.68;4.47;;;;;;;28.03;40.04;100620.99;1794722;79;21007;-65
2022/08/23 10:13:13;;;;;;;15.28;4.92;;;;;;;28.07;39.82;100622.16;1794108;79;21068;-65
2022/08/23 10:16:06;;;;;;;16.10;4.72;;;;;;;28.17;39.63;100620.23;1803312;78;21047;-65
2022/08/23 10:19:00;;;;;;;22.23;4.80;;;;;;;28.31;38.62;100613.55;1803623;79;21312;-65
2022/08/23 10:21:57;;;;;;;23.18;4.87;;;;;;;28.52;37.88;100619.42;1797919;79;20997;-67
2022/08/23 10:24:48;;;;;;;11.45;3.83;;;;;;;28.75;37.40;100614.55;1793471;78;21434;-65
2022/08/23 10:31:03;;;;;;;11.40;3.37;;;;;;;29.18;36.03;100613.28;1790868;78;21005;-61
2022/08/23 10:33:58;;;;;;;17.92;3.83;;;;;;;29.37;35.23;100612.58;1788681;78;21143;-67
2022/08/23 10:36:58;;;;;;;17.65;4.20;;;;;;;29.52;35.51;100613.91;1784242;79;21044;-66
2022/08/23 10:39:27;;;;;;;12.88;3.00;;;;;;;29.57;34.84;100618.06;1793571;78;21075;-65
2022/08/23 10:42:09;;;;;;;14.35;3.83;;;;;;;29.54;34.11;100615.84;1789388;78;21595;-64
2022/08/23 10:44:47;;;;;;;10.78;3.52;;;;;;;29.45;34.18;100620.83;1793486;79;21063;-65
2022/08/23 10:47:52;;;;;;;9.13;3.15;;;;;;;29.37;34.22;100620.70;1794105;78;21896;-66
2022/08/23 10:50:20;;;;;;;11.23;3.43;;;;;;;29.28;34.53;100616.72;1776700;79;21529;-64
2022/08/23 10:52:53;;;;;;;9.40;3.00;;;;;;;29.16;33.55;100618.09;1793607;78;21066;-65
2022/08/23 10:55:35;;;;;;;11.50;3.22;;;;;;;29.05;33.41;100623.84;1795571;79;21589;-64
2022/08/23 10:58:05;;;;;;;11.88;3.25;;;;;;;29.02;33.42;100622.97;1794682;78;21032;-65
2022/08/23 11:00:33;;;;;;;12.53;3.22;;;;;;;29.00;33.86;100616.97;1793819;78;21587;-65
2022/08/23 11:03:26;;;;;;;15.53;4.83;;;;;;;29.03;33.79;100621.92;1791911;78;21079;-65
2022/08/23 11:06:36;;;;;;;16.55;5.05;;;;;;;29.09;33.67;100614.70;1798140;79;22315;-65
2022/08/23 11:09:13;;;;;;;15.75;4.78;;;;;;;29.18;33.49;100618.70;1802054;78;21076;-65
2022/08/23 11:11:48;;;;;;;15.53;3.25;;;;;;;29.32;33.12;100607.58;1745233;79;21110;-64
2022/08/23 11:14:29;;;;;;;15.23;4.05;;;;;;;29.49;33.46;100612.52;1785656;79;21096;-64
2022/08/23 11:17:01;;;;;;;14.33;3.50;;;;;;;29.70;32.19;100612.34;1798611;78;21006;-65
2022/08/23 11:19:56;;;;;;;10.48;2.72;;;;;;;29.93;32.30;100610.05;1800736;78;21571;-64
2022/08/23 11:22:51;;;;;;;12.15;3.58;;;;;;;30.15;30.75;100603.34;1783476;78;21001;-64
2022/08/23 11:25:23;;;;;;;12.58;3.02;;;;;;;30.37;30.64;100605.33;1781179;79;21009;-65
2022/08/23 11:27:49;;;;;;;17.15;3.08;;;;;;;30.56;30.15;100603.14;1766699;80;21278;-66
2022/08/23 11:30:34;;;;;;;13.85;3.72;;;;;;;30.74;29.97;100600.67;1756118;79;21080;-65
2022/08/23 11:33:22;;;;;;;15.15;4.62;;;;;;;30.90;30.26;100598.95;1729243;78;21030;-65
2022/08/23 11:36:17;;;;;;;19.02;4.42;;;;;;;31.13;30.68;100598.45;1785700;78;21045;-64
2022/08/23 11:38:54;;;;;;;21.35;4.75;;;;;;;31.33;29.60;100602.73;1777303;79;21011;-65
2022/08/23 11:41:30;;;;;;;8.90;2.95;;;;;;;31.50;29.67;100609.43;1788251;78;21190;-64
2022/08/23 11:44:12;;;;;;;7.65;2.50;;;;;;;31.65;29.56;100606.08;1788538;79;21108;-65
2022/08/23 11:47:00;;;;;;;8.83;2.55;;;;;;;31.75;28.68;100600.72;1777023;79;21078;-65
2022/08/23 11:49:40;;;;;;;8.83;2.50;;;;;;;31.85;30.40;100596.72;1791124;79;21060;-66
2022/08/23 11:52:15;;;;;;;8.93;2.37;;;;;;;31.99;29.15;100599.84;1791159;78;21059;-64